Time;durP1;ratioP1;P1;durP2;ratioP2;P2;SDS_P1;SDS_P2;PMS_P1;PMS_P2;Temp;Humidity;BMP_temperature;BMP_pressure;BME280_temperature;BME280_humidity;BME280_pressure;Samples;Min_cycle;Max_cycle;Signal;HPM_P1;HPM_P2
2024/01/31 00:01:47;;;;;;;7.17;6.47;;;;;;;19.49;43.57;99059.84;5059883;28;20577;-25
2024/01/31 00:04:14;;;;;;;7.77;6.40;;;;;;;19.49;43.63;99064.94;5054307;28;20204;-25
2024/01/31 00:06:41;;;;;;;7.80;7.00;;;;;;;19.49;43.29;99056.41;5063098;28;20299;-25
2024/01/31 00:09:09;;;;;;;7.33;6.63;;;;;;;19.47;43.59;99060.50;5060756;28;20258;-26
2024/01/31 00:11:35;;;;;;;7.27;6.57;;;;;;;19.45;43.47;99057.88;5053687;28;20250;-25
2024/01/31 00:14:06;;;;;;;7.40;6.60;;;;;;;19.46;43.53;99064.75;5056583;28;20283;-27
2024/01/31 00:16:33;;;;;;;7.37;6.57;;;;;;;19.45;43.46;99062.97;5060937;28;20225;-25
2024/01/31 00:19:01;;;;;;;7.40;6.70;;;;;;;19.45;43.55;99057.00;5063000;28;20311;-25
2024/01/31 00:21:27;;;;;;;7.77;6.97;;;;;;;19.45;43.60;99057.00;5054190;28;20568;-25
2024/01/31 00:23:54;;;;;;;7.50;6.50;;;;;;;19.44;43.68;99053.56;5054386;28;20209;-25
2024/01/31 00:26:21;;;;;;;7.30;6.60;;;;;;;19.37;43.68;99041.25;5052852;28;20667;-26
2024/01/31 00:28:47;;;;;;;7.30;6.60;;;;;;;19.45;43.56;99060.41;5053420;28;20258;-25
2024/01/31 00:31:14;;;;;;;7.50;6.40;;;;;;;19.41;43.67;99050.84;5049187;28;20594;-25
2024/01/31 00:33:41;;;;;;;7.40;6.70;;;;;;;19.45;43.68;99064.66;5053270;28;20232;-25
2024/01/31 00:36:08;;;;;;;6.97;6.27;;;;;;;19.45;43.61;99064.66;5054616;28;20224;-26
2024/01/31 00:38:35;;;;;;;7.27;6.57;;;;;;;19.38;43.33;99039.56;5053181;28;20235;-25
2024/01/31 00:41:02;;;;;;;7.30;6.60;;;;;;;19.43;43.45;99056.91;5049390;28;20204;-25
2024/01/31 00:43:28;;;;;;;7.50;6.70;;;;;;;19.45;43.55;99052.78;5054860;28;20291;-25
2024/01/31 00:45:55;;;;;;;7.10;6.40;;;;;;;19.45;43.61;99052.78;5059191;28;20663;-27
2024/01/31 00:48:21;;;;;;;7.37;6.50;;;;;;;19.45;43.64;99055.31;5052767;28;20201;-28
2024/01/31 00:50:48;;;;;;;6.90;6.20;;;;;;;19.45;43.02;99050.22;5052723;28;20205;-25
2024/01/31 00:53:15;;;;;;;7.70;6.90;;;;;;;19.45;43.62;99049.34;5055525;28;20277;-25
2024/01/31 00:55:41;;;;;;;7.33;6.57;;;;;;;19.46;43.73;99061.31;5060830;28;20217;-25
2024/01/31 00:58:08;;;;;;;7.20;6.50;;;;;;;19.45;43.68;99065.53;5059144;28;20223;-27
2024/01/31 01:00:34;;;;;;;7.23;6.50;;;;;;;19.45;43.53;99052.78;5060394;28;20204;-25
2024/01/31 01:03:01;;;;;;;7.33;6.57;;;;;;;19.45;43.68;99064.66;5052797;28;20227;-25
2024/01/31 01:05:28;;;;;;;7.07;6.37;;;;;;;19.46;43.64;99067.31;5052569;28;20251;-26
2024/01/31 01:07:54;;;;;;;7.07;6.37;;;;;;;19.46;43.55;99059.66;5055993;28;20236;-26
2024/01/31 01:10:21;;;;;;;8.40;7.27;;;;;;;19.46;44.03;99058.75;5052571;28;20721;-25
2024/01/31 01:12:47;;;;;;;7.63;6.83;;;;;;;19.47;43.71;99057.97;5051984;28;20292;-25
2024/01/31 01:15:18;;;;;;;7.20;6.47;;;;;;;19.46;43.68;99059.66;5061307;28;20333;-27
2024/01/31 01:17:44;;;;;;;7.63;6.83;;;;;;;19.47;43.65;99063.94;5061604;28;20221;-25
2024/01/31 01:20:11;;;;;;;7.30;6.60;;;;;;;19.47;43.43;99063.94;5052720;28;20207;-27
2024/01/31 01:22:38;;;;;;;7.13;6.43;;;;;;;19.44;43.61;99058.66;5051772;28;20561;-25
2024/01/31 01:25:05;;;;;;;8.00;6.80;;;;;;;19.50;43.63;99060.69;5051616;28;20207;-26
2024/01/31 01:27:32;;;;;;;7.20;6.50;;;;;;;19.45;43.27;99060.41;5051851;28;20662;-25
2024/01/31 01:29:59;;;;;;;6.97;6.27;;;;;;;19.49;43.43;99062.41;5052173;28;20228;-25
2024/01/31 01:32:25;;;;;;;7.40;6.70;;;;;;;19.50;43.52;99068.34;5052208;28;20221;-26
2024/01/31 01:34:52;;;;;;;7.80;7.00;;;;;;;19.48;43.42;99068.25;5056471;28;20197;-33
2024/01/31 01:37:19;;;;;;;7.17;6.43;;;;;;;19.47;43.87;99074.16;5061625;28;20572;-25
2024/01/31 01:39:45;;;;;;;7.93;7.13;;;;;;;19.47;43.51;99063.94;5055140;28;20352;-25
2024/01/31 01:42:12;;;;;;;7.50;6.70;;;;;;;19.47;43.32;99063.06;5052095;28;20201;-25
2024/01/31 01:44:47;;;;;;;7.27;6.47;;;;;;;19.46;43.70;99063.88;5051353;28;20250;-25
2024/01/31 01:47:14;;;;;;;8.03;7.10;;;;;;;19.43;43.47;99068.78;5051109;28;20219;-25
2024/01/31 01:49:40;;;;;;;7.10;6.40;;;;;;;19.43;43.54;99067.13;5034271;28;20270;-25
2024/01/31 01:52:08;;;;;;;8.40;6.97;;;;;;;19.46;43.46;99071.50;5033643;28;20208;-25
2024/01/31 01:54:35;;;;;;;7.30;6.60;;;;;;;19.46;43.50;99063.88;5051141;28;20258;-25
2024/01/31 01:57:02;;;;;;;8.00;7.20;;;;;;;19.44;43.42;99065.44;5054144;28;20256;-25
2024/01/31 01:59:29;;;;;;;7.40;6.70;;;;;;;19.45;43.51;99057.00;5051925;28;20228;-27
2024/01/31 02:01:55;;;;;;;7.40;6.47;;;;;;;19.45;43.61;99062.13;5049486;28;20200;-31
2024/01/31 02:04:22;;;;;;;7.27;6.57;;;;;;;19.43;43.36;99058.56;5048888;28;20197;-28
2024/01/31 02:06:49;;;;;;;7.43;6.73;;;;;;;19.44;43.60;99063.78;5049494;28;20228;-28
2024/01/31 02:09:15;;;;;;;7.17;6.47;;;;;;;19.46;43.91;99067.31;5032566;28;20331;-26
2024/01/31 02:11:42;;;;;;;7.30;6.60;;;;;;;19.46;43.61;99072.41;5051574;28;20240;-27
2024/01/31 02:14:08;;;;;;;7.57;6.80;;;;;;;19.46;43.45;99071.50;5054165;28;20201;-25
2024/01/31 02:16:35;;;;;;;7.83;6.87;;;;;;;19.42;43.46;99055.13;5057353;28;20335;-28
2024/01/31 02:19:02;;;;;;;7.60;6.80;;;;;;;19.44;43.36;99063.78;5052999;28;20205;-25
2024/01/31 02:21:29;;;;;;;7.00;6.30;;;;;;;19.44;43.80;99057.78;5051673;28;20220;-25
2024/01/31 02:23:55;;;;;;;7.77;6.83;;;;;;;19.42;43.53;99044.06;5040252;28;20295;-27
2024/01/31 02:26:22;;;;;;;7.87;7.07;;;;;;;19.48;43.54;99052.09;5050996;28;20282;-25
2024/01/31 02:28:49;;;;;;;7.33;6.63;;;;;;;19.49;43.51;99039.44;5058412;28;20719;-25
2024/01/31 02:31:15;;;;;;;6.70;5.97;;;;;;;19.49;43.55;99047.09;5048546;28;20557;-26
2024/01/31 02:33:42;;;;;;;7.00;6.40;;;;;;;19.47;43.46;99041.00;5050046;28;20201;-26
2024/01/31 02:36:08;;;;;;;6.97;6.13;;;;;;;19.46;42.85;99046.00;5050913;28;20649;-25
2024/01/31 02:38:35;;;;;;;7.80;6.50;;;;;;;19.49;43.41;99041.09;5052569;28;20200;-26
2024/01/31 02:41:01;;;;;;;7.03;6.33;;;;;;;19.46;43.35;99035.81;5049237;28;20718;-27
2024/01/31 02:43:28;;;;;;;7.20;6.50;;;;;;;19.46;42.96;99034.16;5048849;28;20220;-27
2024/01/31 02:45:55;;;;;;;6.97;6.27;;;;;;;19.44;43.52;99034.81;5049169;28;20280;-25
2024/01/31 02:48:22;;;;;;;7.80;7.00;;;;;;;19.45;43.51;99046.81;5043459;28;20256;-26
2024/01/31 02:50:48;;;;;;;7.60;6.33;;;;;;;19.44;43.39;99051.03;5048265;28;20583;-29
2024/01/31 02:53:15;;;;;;;6.80;6.17;;;;;;;19.45;43.47;99057.00;5050198;28;20197;-27
2024/01/31 02:55:41;;;;;;;7.10;6.40;;;;;;;19.43;43.37;99059.47;5044817;28;20220;-27
2024/01/31 02:58:08;;;;;;;6.80;6.17;;;;;;;19.37;43.06;99041.25;5049578;28;20632;-25
2024/01/31 03:00:35;;;;;;;7.47;6.67;;;;;;;19.45;43.58;99057.88;5058761;28;20215;-26
2024/01/31 03:03:01;;;;;;;6.83;6.23;;;;;;;19.46;43.44;99058.75;5057431;28;20208;-27
2024/01/31 03:05:28;;;;;;;6.90;6.30;;;;;;;19.45;43.24;99057.00;5061350;28;20705;-25
2024/01/31 03:07:55;;;;;;;6.60;6.00;;;;;;;19.45;43.66;99047.66;5054044;28;20564;-25
2024/01/31 03:10:22;;;;;;;7.40;6.67;;;;;;;19.45;43.36;99042.56;5057498;28;20627;-28
2024/01/31 03:12:48;;;;;;;7.17;6.47;;;;;;;19.45;43.61;99042.56;5060969;28;20200;-25
2024/01/31 03:15:15;;;;;;;7.87;6.93;;;;;;;19.44;43.53;99033.16;5051684;28;20253;-25
2024/01/31 03:17:42;;;;;;;6.93;6.23;;;;;;;19.46;43.55;99043.47;5059982;28;20228;-26
2024/01/31 03:20:10;;;;;;;6.80;6.10;;;;;;;19.46;43.59;99044.34;5061239;28;20296;-26
2024/01/31 03:22:36;;;;;;;6.80;6.20;;;;;;;19.48;43.43;99050.41;5080725;22;20248;-27
2024/01/31 03:25:04;;;;;;;6.40;5.80;;;;;;;19.48;43.49;99050.41;5072070;28;20208;-25
2024/01/31 03:27:31;;;;;;;7.33;6.60;;;;;;;19.41;43.59;99039.75;5072212;28;20641;-26
2024/01/31 03:30:01;;;;;;;8.37;6.10;;;;;;;19.51;43.52;99052.28;5071964;28;20200;-25
2024/01/31 03:32:33;;;;;;;6.90;6.13;;;;;;;19.49;43.31;99052.19;5072292;28;20227;-25
2024/01/31 03:35:00;;;;;;;7.10;6.40;;;;;;;19.49;43.43;99049.66;5072464;28;20265;-26
2024/01/31 03:37:27;;;;;;;6.73;6.13;;;;;;;19.48;43.48;99045.31;5073367;28;20208;-25
2024/01/31 03:39:54;;;;;;;7.43;6.63;;;;;;;19.47;43.53;99045.22;5073859;28;20305;-26
2024/01/31 03:42:21;;;;;;;6.80;6.00;;;;;;;19.47;43.50;99035.00;5068385;28;20265;-25
2024/01/31 03:44:47;;;;;;;7.63;6.77;;;;;;;19.44;43.45;99039.94;5073719;28;20261;-25
2024/01/31 03:47:14;;;;;;;6.77;6.10;;;;;;;19.46;43.50;99040.91;5066862;28;20265;-25
2024/01/31 03:49:41;;;;;;;6.83;6.13;;;;;;;19.45;43.50;99042.56;5073069;28;20232;-25
2024/01/31 03:52:07;;;;;;;7.40;6.57;;;;;;;19.46;43.42;99038.38;5072805;28;20239;-25
2024/01/31 03:54:34;;;;;;;7.40;6.70;;;;;;;19.46;43.43;99039.25;5073628;28;20212;-25
2024/01/31 03:57:00;;;;;;;8.07;6.10;;;;;;;19.46;43.44;99043.47;5069796;28;20273;-25
2024/01/31 03:59:27;;;;;;;7.03;6.40;;;;;;;19.45;43.59;99046.81;5068676;28;20197;-26
2024/01/31 04:01:54;;;;;;;6.57;5.97;;;;;;;19.38;43.68;99026.81;5067916;28;20607;-27
2024/01/31 04:04:20;;;;;;;7.07;6.37;;;;;;;19.46;43.50;99039.25;5069947;28;20204;-25
2024/01/31 04:06:47;;;;;;;7.20;6.50;;;;;;;19.46;43.40;99040.91;5073368;28;20211;-25
2024/01/31 04:09:14;;;;;;;6.93;6.23;;;;;;;19.46;43.51;99043.47;5073346;28;20705;-25
2024/01/31 04:11:40;;;;;;;7.13;6.43;;;;;;;19.46;43.40;99044.34;5073903;28;20212;-25
2024/01/31 04:14:07;;;;;;;7.07;6.33;;;;;;;19.48;43.35;99042.75;5071272;28;20224;-31
2024/01/31 04:16:34;;;;;;;7.03;6.33;;;;;;;19.47;43.56;99041.00;5067705;28;20224;-25
2024/01/31 04:19:00;;;;;;;6.93;6.00;;;;;;;19.47;43.60;99028.25;5070103;28;20239;-25
2024/01/31 04:21:28;;;;;;;6.60;6.00;;;;;;;19.49;43.50;99029.25;5069849;28;20200;-25
2024/01/31 04:23:54;;;;;;;6.70;5.90;;;;;;;19.50;43.40;99032.66;5068371;28;20317;-25
2024/01/31 04:26:21;;;;;;;6.80;6.20;;;;;;;19.50;43.40;99032.66;5064926;28;20197;-25
2024/01/31 04:28:47;;;;;;;6.80;6.20;;;;;;;19.49;43.53;99023.25;5073325;28;20207;-25
2024/01/31 04:31:14;;;;;;;7.07;6.30;;;;;;;19.40;43.40;99015.94;5071223;28;20682;-25
2024/01/31 04:33:41;;;;;;;7.03;6.33;;;;;;;19.48;43.43;99027.47;5072639;28;20228;-25
2024/01/31 04:36:08;;;;;;;6.80;6.20;;;;;;;19.47;43.51;99027.38;5070298;28;20602;-25
2024/01/31 04:38:35;;;;;;;7.20;6.50;;;;;;;19.46;43.54;99025.63;5072129;28;20592;-25
2024/01/31 04:41:03;;;;;;;6.73;6.07;;;;;;;19.46;43.34;99015.41;5071165;28;20209;-26
2024/01/31 04:43:29;;;;;;;6.83;6.10;;;;;;;19.46;43.73;99029.06;5067748;28;20220;-25
2024/01/31 04:45:56;;;;;;;7.00;6.10;;;;;;;19.46;43.49;99031.59;5072325;28;20281;-25
2024/01/31 04:48:23;;;;;;;6.77;6.07;;;;;;;19.45;43.42;99024.72;5063121;28;20205;-25
2024/01/31 04:50:50;;;;;;;7.20;6.50;;;;;;;19.45;43.26;99016.22;5070218;28;20239;-25
2024/01/31 04:53:16;;;;;;;7.03;6.37;;;;;;;19.46;43.28;99023.06;5070792;28;20220;-25
2024/01/31 04:55:44;;;;;;;7.20;6.50;;;;;;;19.45;43.28;99024.72;5065173;28;20201;-25
2024/01/31 04:58:12;;;;;;;6.67;6.00;;;;;;;19.46;43.26;99038.38;5068245;28;20226;-25
2024/01/31 05:00:39;;;;;;;6.37;5.60;;;;;;;19.46;43.31;99041.81;5068164;28;20666;-26
2024/01/31 05:03:07;;;;;;;6.90;6.27;;;;;;;19.46;43.53;99043.47;5070666;28;20220;-25
2024/01/31 05:05:33;;;;;;;6.80;6.10;;;;;;;19.44;43.37;99039.94;5065656;28;20738;-25
2024/01/31 05:08:00;;;;;;;6.83;6.13;;;;;;;19.47;43.40;99030.81;5071708;28;20206;-25
2024/01/31 05:10:27;;;;;;;6.23;5.70;;;;;;;19.45;43.32;99032.38;5063794;28;20610;-25
2024/01/31 05:12:54;;;;;;;7.30;6.10;;;;;;;19.49;43.31;99047.09;5068665;28;20227;-25
2024/01/31 05:15:20;;;;;;;6.77;6.17;;;;;;;19.49;43.51;99044.53;5071499;28;20224;-25
2024/01/31 05:17:47;;;;;;;7.00;6.10;;;;;;;19.44;42.85;99040.81;5062797;28;20222;-25
2024/01/31 05:20:13;;;;;;;6.67;6.03;;;;;;;19.49;43.38;99053.84;5062651;28;20832;-25
2024/01/31 05:22:40;;;;;;;6.27;5.70;;;;;;;19.48;43.25;99045.31;5064803;28;20227;-25
2024/01/31 05:25:07;;;;;;;6.73;6.13;;;;;;;19.48;43.28;99052.97;5064451;28;20291;-25
2024/01/31 05:27:35;;;;;;;6.40;5.80;;;;;;;19.47;43.26;99052.88;5069886;28;20288;-25
2024/01/31 05:30:04;;;;;;;6.53;5.93;;;;;;;19.46;43.32;99048.56;5068446;28;20197;-26
2024/01/31 05:32:31;;;;;;;6.33;5.70;;;;;;;19.47;43.36;99047.75;5065166;28;20224;-25
2024/01/31 05:34:58;;;;;;;6.50;5.87;;;;;;;19.46;43.33;99054.56;5068682;28;20673;-26
2024/01/31 05:37:24;;;;;;;6.77;5.97;;;;;;;19.46;43.27;99056.22;5069925;28;20216;-25
2024/01/31 05:39:51;;;;;;;6.53;5.87;;;;;;;19.47;43.29;99060.50;5069963;28;20317;-25
2024/01/31 05:42:18;;;;;;;6.50;5.70;;;;;;;19.46;43.33;99057.09;5068149;28;20246;-25
2024/01/31 05:44:44;;;;;;;6.50;5.90;;;;;;;19.47;43.53;99065.63;5068869;28;20200;-25
2024/01/31 05:47:11;;;;;;;6.13;5.53;;;;;;;19.47;43.55;99065.63;5070160;28;20193;-25
2024/01/31 05:49:37;;;;;;;6.33;5.73;;;;;;;19.47;43.44;99063.94;5070657;28;20250;-25
2024/01/31 05:52:04;;;;;;;6.43;5.77;;;;;;;19.49;43.44;99070.03;5071422;28;20298;-25
2024/01/31 05:54:31;;;;;;;8.57;5.90;;;;;;;19.49;43.51;99085.34;5070687;28;20231;-25
2024/01/31 05:56:57;;;;;;;6.23;5.63;;;;;;;19.49;43.40;99079.34;5071820;28;20274;-25
2024/01/31 05:59:25;;;;;;;7.00;6.30;;;;;;;19.47;43.07;99081.81;5069058;28;20227;-25
2024/01/31 06:01:52;;;;;;;10.83;8.33;;;;;;;19.45;40.95;99078.25;5071262;28;20204;-25
2024/01/31 06:04:18;;;;;;;11.83;9.43;;;;;;;19.43;40.23;99078.97;5071374;28;20743;-25
2024/01/31 06:06:45;;;;;;;16.13;10.87;;;;;;;19.41;39.16;99088.19;5071412;28;20198;-27
2024/01/31 06:09:12;;;;;;;13.23;11.20;;;;;;;19.40;38.58;99083.88;5074328;28;20725;-25
2024/01/31 06:11:39;;;;;;;14.03;11.00;;;;;;;19.40;38.58;99084.78;5071744;28;20281;-25
2024/01/31 06:14:06;;;;;;;13.70;11.57;;;;;;;19.38;37.94;99082.91;5071084;28;20266;-26
2024/01/31 06:16:33;;;;;;;14.40;11.87;;;;;;;19.37;38.00;99084.59;5071700;28;20212;-25
2024/01/31 06:19:01;;;;;;;13.73;11.43;;;;;;;19.34;38.44;99086.06;5068094;28;20200;-26
2024/01/31 06:21:27;;;;;;;13.07;11.10;;;;;;;19.33;39.22;99084.28;5062751;28;20204;-27
2024/01/31 06:23:55;;;;;;;12.57;11.20;;;;;;;19.33;40.02;99089.41;5071239;28;20235;-25
2024/01/31 06:26:22;;;;;;;12.90;10.50;;;;;;;19.33;40.07;99089.41;5071385;28;20204;-26
2024/01/31 06:28:49;;;;;;;13.27;10.53;;;;;;;19.33;40.30;99094.50;5071856;28;20555;-25
2024/01/31 06:31:24;;;;;;;13.07;10.90;;;;;;;19.33;40.44;99099.59;5071368;28;20608;-25
2024/01/31 06:33:51;;;;;;;12.50;10.70;;;;;;;19.34;40.51;99103.91;5071192;28;20306;-25
2024/01/31 06:36:19;;;;;;;13.43;10.43;;;;;;;19.34;40.67;99099.69;5070070;28;20208;-25
2024/01/31 06:38:46;;;;;;;15.33;10.87;;;;;;;19.35;40.86;99095.44;5070268;28;20196;-25
2024/01/31 06:41:14;;;;;;;11.53;10.13;;;;;;;19.36;41.04;99092.13;5070426;28;20242;-28
2024/01/31 06:43:41;;;;;;;13.03;10.50;;;;;;;19.37;40.97;99099.88;5071005;28;20308;-25
2024/01/31 06:46:07;;;;;;;11.33;10.10;;;;;;;19.38;41.49;99106.72;5070704;28;20222;-26
2024/01/31 06:48:34;;;;;;;10.13;9.00;;;;;;;19.39;41.28;99103.38;5070821;28;20204;-25
2024/01/31 06:51:01;;;;;;;11.17;10.00;;;;;;;19.39;41.70;99103.38;5071316;28;20226;-25
2024/01/31 06:53:29;;;;;;;10.30;9.20;;;;;;;19.40;41.37;99096.63;5068863;28;20223;-26
2024/01/31 06:55:55;;;;;;;11.37;9.90;;;;;;;19.32;41.51;99083.41;5066807;28;20664;-25
2024/01/31 06:58:22;;;;;;;12.03;9.27;;;;;;;19.40;41.55;99106.81;5070949;28;20216;-25
2024/01/31 07:00:49;;;;;;;9.97;8.70;;;;;;;19.40;41.48;99100.06;5071164;28;20196;-25
2024/01/31 07:03:16;;;;;;;11.43;10.23;;;;;;;19.42;40.68;99106.13;5071040;28;20220;-25
2024/01/31 07:05:43;;;;;;;12.13;10.03;;;;;;;19.40;39.73;99107.72;5071038;28;20200;-25
2024/01/31 07:08:10;;;;;;;10.80;9.40;;;;;;;19.36;40.19;99099.78;5070745;28;20303;-25
2024/01/31 07:10:36;;;;;;;11.13;9.43;;;;;;;19.37;40.54;99106.63;5071028;28;20200;-25
2024/01/31 07:13:03;;;;;;;11.67;10.03;;;;;;;19.39;39.76;99107.63;5070947;28;20220;-25
2024/01/31 07:15:30;;;;;;;12.03;10.73;;;;;;;19.41;38.14;99106.03;5070017;28;20227;-28
2024/01/31 07:17:56;;;;;;;14.47;10.83;;;;;;;19.36;38.57;99107.44;5070631;28;20277;-25
2024/01/31 07:20:23;;;;;;;11.57;10.20;;;;;;;19.33;39.32;99112.34;5070808;28;20196;-25
2024/01/31 07:22:50;;;;;;;11.97;10.40;;;;;;;19.33;39.50;99107.25;5070768;28;20310;-29
2024/01/31 07:25:16;;;;;;;14.53;10.53;;;;;;;19.33;39.91;99110.66;5072551;28;20200;-25
2024/01/31 07:27:44;;;;;;;11.13;9.87;;;;;;;19.33;40.24;99099.59;5074900;28;20616;-25
2024/01/31 07:30:11;;;;;;;11.33;9.57;;;;;;;19.33;40.62;99105.56;5070529;28;20222;-27
2024/01/31 07:32:38;;;;;;;10.17;8.87;;;;;;;19.34;40.70;99102.25;5071237;28;20603;-25
2024/01/31 07:35:08;;;;;;;10.33;9.23;;;;;;;19.34;40.77;99103.91;5070822;28;20299;-31
2024/01/31 07:37:35;;;;;;;10.63;8.90;;;;;;;19.33;40.99;99108.09;5070089;28;20315;-25
2024/01/31 07:40:04;;;;;;;10.97;9.50;;;;;;;19.32;41.27;99101.25;5070933;28;20207;-25
2024/01/31 07:42:31;;;;;;;9.80;8.43;;;;;;;19.28;41.28;99096.75;5068268;28;20572;-25
2024/01/31 07:44:57;;;;;;;12.57;8.87;;;;;;;19.34;41.47;99101.34;5070623;28;20231;-25
2024/01/31 07:47:24;;;;;;;11.43;9.10;;;;;;;19.33;41.65;99097.91;5070563;28;20646;-25
2024/01/31 07:49:51;;;;;;;9.80;8.60;;;;;;;19.19;41.61;99078.25;5073249;28;20204;-25
2024/01/31 07:52:18;;;;;;;10.97;8.50;;;;;;;19.34;41.66;99109.00;5073521;28;20216;-25
2024/01/31 07:54:44;;;;;;;9.40;8.47;;;;;;;19.34;41.85;99103.91;5072268;28;20261;-25
2024/01/31 07:57:11;;;;;;;9.10;8.20;;;;;;;18.66;41.73;98991.59;5073287;28;20274;-27
2024/01/31 07:59:38;;;;;;;10.03;8.23;;;;;;;19.34;41.95;99103.91;5073883;28;20196;-27
2024/01/31 08:02:04;;;;;;;11.03;8.60;;;;;;;19.29;41.86;99092.53;5073908;28;20328;-25
2024/01/31 08:04:31;;;;;;;9.37;8.37;;;;;;;19.36;42.08;99100.66;5071986;28;20200;-25
2024/01/31 08:06:58;;;;;;;8.67;7.70;;;;;;;19.37;42.02;99097.34;5073530;28;20258;-25
2024/01/31 08:09:24;;;;;;;9.37;7.73;;;;;;;19.39;42.15;99097.44;5073480;28;20343;-26
2024/01/31 08:11:51;;;;;;;9.33;7.70;;;;;;;19.39;42.01;99088.09;5073265;28;20242;-26
2024/01/31 08:14:17;;;;;;;8.97;8.07;;;;;;;19.41;42.00;99088.19;5073489;28;20259;-29
2024/01/31 08:16:44;;;;;;;8.37;7.43;;;;;;;19.41;41.95;99086.53;5073584;28;20250;-25
2024/01/31 08:19:11;;;;;;;10.70;8.43;;;;;;;19.42;41.68;99084.88;5073476;28;20232;-25
2024/01/31 08:21:38;;;;;;;7.93;7.13;;;;;;;19.42;42.13;99079.78;5073378;28;20238;-25
2024/01/31 08:24:05;;;;;;;8.20;7.40;;;;;;;19.40;42.12;99074.56;5069897;28;20395;-25
2024/01/31 08:26:31;;;;;;;9.23;7.60;;;;;;;19.41;42.14;99091.63;5072830;28;20207;-25
2024/01/31 08:28:58;;;;;;;8.63;7.73;;;;;;;19.41;42.14;99093.28;5073572;28;20224;-25
2024/01/31 08:31:41;;;;;;;8.30;7.47;;;;;;;19.41;41.82;99088.19;5058666;28;20358;-25
2024/01/31 08:34:08;;;;;;;8.17;7.33;;;;;;;19.12;42.32;99039.56;5070235;28;20231;-25
2024/01/31 08:36:35;;;;;;;7.33;6.63;;;;;;;19.40;42.24;99079.66;5084138;28;20219;-25
2024/01/31 08:39:02;;;;;;;8.20;6.83;;;;;;;19.41;42.40;99083.09;5070210;28;20303;-25
2024/01/31 08:41:29;;;;;;;7.60;6.80;;;;;;;19.41;42.36;99086.53;5072444;28;20224;-25
2024/01/31 08:43:55;;;;;;;8.80;7.27;;;;;;;19.41;42.58;99081.44;5069668;28;20221;-25
2024/01/31 08:46:22;;;;;;;7.80;7.00;;;;;;;19.41;42.22;99073.78;5064926;28;20582;-25
2024/01/31 08:48:49;;;;;;;7.50;6.67;;;;;;;19.42;42.56;99083.19;5068718;28;20196;-25
2024/01/31 08:51:16;;;;;;;7.50;6.70;;;;;;;19.43;42.42;99087.50;5071224;28;20570;-25
2024/01/31 08:53:43;;;;;;;7.73;6.60;;;;;;;19.44;42.32;99083.28;5072695;28;20251;-25
2024/01/31 08:56:10;;;;;;;9.47;7.00;;;;;;;19.45;42.70;99087.59;5069463;28;20203;-25
2024/01/31 08:58:37;;;;;;;7.23;6.50;;;;;;;19.42;42.39;99082.31;5071686;28;20224;-26
2024/01/31 09:01:04;;;;;;;9.60;7.13;;;;;;;19.45;42.89;99091.03;5067365;28;20207;-25
2024/01/31 09:03:31;;;;;;;8.00;6.50;;;;;;;19.45;42.42;99088.47;5066660;28;20212;-26
2024/01/31 09:05:57;;;;;;;8.50;7.60;;;;;;;19.45;42.64;99096.13;5065618;28;20290;-26
2024/01/31 09:08:24;;;;;;;7.80;7.00;;;;;;;19.45;42.51;99100.34;5072410;28;20212;-25
2024/01/31 09:10:50;;;;;;;14.97;6.90;;;;;;;19.44;42.55;99096.91;5071687;28;20499;-25
2024/01/31 09:13:19;;;;;;;7.37;6.53;;;;;;;19.44;42.58;99091.81;5070920;28;20697;-26
2024/01/31 09:15:45;;;;;;;10.40;6.80;;;;;;;19.44;42.81;99089.25;5066937;28;20212;-25
2024/01/31 09:18:12;;;;;;;7.33;6.57;;;;;;;19.44;42.63;99083.28;5061678;28;20342;-25
2024/01/31 09:20:39;;;;;;;8.97;6.47;;;;;;;19.42;42.47;99080.63;5068132;28;20640;-25
2024/01/31 09:23:05;;;;;;;7.60;6.40;;;;;;;19.41;42.49;99081.44;5079056;22;20283;-26
2024/01/31 09:25:33;;;;;;;7.00;6.30;;;;;;;19.43;42.72;99091.72;5032070;28;20206;-25
2024/01/31 09:27:59;;;;;;;7.60;6.00;;;;;;;19.44;42.82;99096.03;5032006;28;20247;-27
2024/01/31 09:30:26;;;;;;;7.53;6.53;;;;;;;19.44;42.63;99090.91;5031934;28;20206;-25
2024/01/31 09:32:53;;;;;;;7.07;6.37;;;;;;;19.45;42.53;99090.16;5032086;28;20640;-25
2024/01/31 09:35:19;;;;;;;8.10;6.23;;;;;;;19.47;42.67;99088.56;5019362;28;20290;-25
2024/01/31 09:37:46;;;;;;;6.93;6.13;;;;;;;19.43;42.73;99078.97;5021237;28;20226;-29
2024/01/31 09:40:17;;;;;;;9.30;6.60;;;;;;;19.47;42.84;99086.00;5016725;28;20293;-25
2024/01/31 09:42:44;;;;;;;8.60;6.67;;;;;;;19.47;42.69;99088.56;5021701;28;20210;-26
2024/01/31 09:45:12;;;;;;;7.20;6.30;;;;;;;19.46;42.79;99097.91;5001008;28;20256;-28
2024/01/31 09:47:39;;;;;;;6.07;5.53;;;;;;;19.46;42.94;99092.81;5023664;28;20202;-25
2024/01/31 09:50:07;;;;;;;6.93;5.87;;;;;;;19.45;42.54;99096.13;5023096;28;20288;-25
2024/01/31 09:52:39;;;;;;;6.87;6.17;;;;;;;19.43;42.84;99082.41;5002604;28;20249;-25
2024/01/31 09:55:10;;;;;;;6.50;5.90;;;;;;;19.46;43.10;99091.91;5021369;28;20201;-25
2024/01/31 09:57:39;;;;;;;8.73;6.23;;;;;;;19.43;42.73;99081.53;5020887;28;20312;-25
2024/01/31 10:00:07;;;;;;;7.47;5.90;;;;;;;19.45;42.93;99079.97;5008674;28;20585;-25
2024/01/31 10:02:33;;;;;;;6.60;5.83;;;;;;;19.45;42.52;99085.91;5017062;28;20206;-26
2024/01/31 10:05:00;;;;;;;6.93;5.87;;;;;;;19.46;42.88;99084.25;4990243;28;20616;-25
2024/01/31 10:07:30;;;;;;;6.67;5.97;;;;;;;19.46;43.02;99080.06;5027321;28;20661;-25
2024/01/31 10:09:57;;;;;;;6.63;5.93;;;;;;;19.46;43.24;99081.72;5022637;28;20665;-25
2024/01/31 10:12:24;;;;;;;6.43;5.83;;;;;;;19.46;42.89;99084.25;5023313;28;20211;-25
2024/01/31 10:14:55;;;;;;;6.40;5.80;;;;;;;19.47;42.98;99075.81;5013872;28;20226;-25
2024/01/31 10:17:21;;;;;;;5.87;5.30;;;;;;;19.46;42.83;99077.50;5019478;28;20197;-25
2024/01/31 10:19:48;;;;;;;6.73;5.87;;;;;;;19.48;42.95;99080.16;5025229;28;20276;-25
2024/01/31 10:22:18;;;;;;;6.70;6.00;;;;;;;19.50;42.94;99084.53;5026161;28;20212;-25
2024/01/31 10:24:46;;;;;;;6.53;5.70;;;;;;;19.50;43.09;99076.00;5025017;28;20225;-25
2024/01/31 10:27:14;;;;;;;6.30;5.70;;;;;;;19.50;43.04;99076.00;5020603;28;20206;-30
2024/01/31 10:29:41;;;;;;;6.90;6.20;;;;;;;19.49;42.94;99061.50;5022945;28;20220;-26
2024/01/31 10:32:07;;;;;;;6.33;5.50;;;;;;;19.43;43.07;99053.47;5019592;28;20567;-25
2024/01/31 10:34:34;;;;;;;6.60;5.90;;;;;;;19.49;43.21;99057.28;5005453;28;20635;-27
2024/01/31 10:37:20;;;;;;;6.97;6.00;;;;;;;19.47;43.12;99056.31;5003621;28;20244;-25
2024/01/31 10:39:50;;;;;;;6.83;6.13;;;;;;;19.48;42.97;99060.59;5020284;28;20286;-27
2024/01/31 10:42:16;;;;;;;6.13;5.53;;;;;;;19.49;42.81;99058.94;4985695;28;20643;-25
2024/01/31 10:44:43;;;;;;;8.23;6.10;;;;;;;19.47;43.12;99058.84;5007373;28;20229;-25
2024/01/31 10:47:10;;;;;;;6.50;5.90;;;;;;;19.47;43.06;99047.75;5023296;28;20237;-25
2024/01/31 10:49:36;;;;;;;6.83;5.70;;;;;;;19.46;43.14;99054.56;5029820;28;20210;-25
2024/01/31 10:52:03;;;;;;;5.90;5.30;;;;;;;19.46;42.99;99051.13;5026125;28;20212;-29
2024/01/31 10:54:32;;;;;;;7.57;5.73;;;;;;;19.49;43.13;99059.84;5010458;28;20233;-25
2024/01/31 10:56:59;;;;;;;6.57;5.87;;;;;;;19.46;43.09;99046.91;5014519;28;20206;-25
2024/01/31 10:59:25;;;;;;;6.17;5.57;;;;;;;19.46;43.01;99046.91;5008423;28;20228;-29
2024/01/31 11:01:55;;;;;;;6.00;5.43;;;;;;;19.52;43.01;99049.84;5031072;28;20260;-25
2024/01/31 11:04:22;;;;;;;6.03;5.43;;;;;;;19.51;43.12;99044.63;5021852;28;20252;-25
2024/01/31 11:06:51;;;;;;;5.90;5.33;;;;;;;19.51;43.01;99053.16;5019848;28;20622;-25
2024/01/31 11:09:25;;;;;;;6.10;5.40;;;;;;;19.50;43.20;99046.28;5023674;28;20233;-26
2024/01/31 11:12:03;;;;;;;6.23;5.60;;;;;;;19.47;43.17;99042.66;5015542;28;20202;-25
2024/01/31 11:14:29;;;;;;;6.73;6.03;;;;;;;19.49;43.13;99044.53;5012713;28;20347;-25
2024/01/31 11:17:18;;;;;;;5.83;5.33;;;;;;;19.49;43.10;99043.66;5017379;28;20205;-27
2024/01/31 11:19:52;;;;;;;5.83;5.23;;;;;;;19.49;43.29;99048.75;5026922;28;20222;-25
2024/01/31 11:22:19;;;;;;;6.13;5.53;;;;;;;19.49;43.22;99046.19;5018217;28;20205;-28
2024/01/31 11:24:46;;;;;;;7.03;5.97;;;;;;;19.46;43.33;99044.34;5020589;28;20267;-25
2024/01/31 11:27:14;;;;;;;5.40;4.90;;;;;;;19.48;43.27;99047.00;5007181;28;20244;-25
2024/01/31 11:29:46;;;;;;;5.80;5.30;;;;;;;19.46;43.26;99040.91;5003961;28;20198;-25
2024/01/31 11:32:12;;;;;;;5.97;5.37;;;;;;;19.49;43.27;99046.19;5018083;28;20577;-25